Time;durP1;ratioP1;P1;durP2;ratioP2;P2;SDS_P1;SDS_P2;PMS_P1;PMS_P2;Temp;Humidity;BMP_temperature;BMP_pressure;BME280_temperature;BME280_humidity;BME280_pressure;Samples;Min_cycle;Max_cycle;Signal;HPM_P1;HPM_P2
2024/02/22 00:00:20;;;;;;;;;;;;;;;-1.66;100.00;101194.67;105322;1263;66933;-56
2024/02/22 00:02:48;;;;;;;;;;;;;;;-1.66;100.00;101192.61;105168;1262;72619;-55
2024/02/22 00:05:16;;;;;;;;;;;;;;;-1.65;100.00;101188.15;105471;1256;59747;-54
2024/02/22 00:07:44;;;;;;;;;;;;;;;-1.64;100.00;101188.39;105364;1257;60027;-54
2024/02/22 00:10:12;;;;;;;;;;;;;;;-1.64;100.00;101185.38;105389;1260;73035;-55
2024/02/22 00:12:40;;;;;;;;;;;;;;;-1.64;100.00;101181.73;105713;1254;67031;-54
2024/02/22 00:15:10;;;;;;;;;;;;;;;-1.62;100.00;101181.65;105728;1253;72661;-54
2024/02/22 00:17:38;;;;;;;;;;;;;;;-1.59;100.00;101182.35;105675;1257;59570;-53
2024/02/22 00:20:07;;;;;;;;;;;;;;;-1.57;100.00;101183.59;105815;1253;59818;-54
2024/02/22 00:22:34;;;;;;;;;;;;;;;-1.54;100.00;101188.23;105744;1253;72837;-55
2024/02/22 00:25:03;;;;;;;;;;;;;;;-1.53;100.00;101186.42;105713;1256;65845;-55
2024/02/22 00:27:31;;;;;;;;;;;;;;;-1.53;100.00;101179.42;105773;1256;72710;-56
2024/02/22 00:29:58;;;;;;;;;;;;;;;-1.52;100.00;101181.45;106092;1253;60941;-61
2024/02/22 00:32:26;;;;;;;;;;;;;;;-1.52;100.00;101179.39;105771;1256;59872;-55
2024/02/22 00:34:54;;;;;;;;;;;;;;;-1.51;100.00;101174.42;105736;1252;74105;-55
2024/02/22 00:37:22;;;;;;;;;;;;;;;-1.51;100.00;101170.48;105807;1253;66263;-54
2024/02/22 00:39:51;;;;;;;;;;;;;;;-1.50;100.00;101170.58;105936;1253;72659;-57
2024/02/22 00:42:20;;;;;;;;;;;;;;;-1.48;100.00;101164.38;105734;1256;60973;-54
2024/02/22 00:44:47;;;;;;;;;;;;;;;-1.48;100.00;101161.63;105900;1256;59587;-55
2024/02/22 00:47:15;;;;;;;;;;;;;;;-1.47;100.00;101164.15;105686;1253;73153;-53
2024/02/22 00:49:42;;;;;;;;;;;;;;;-1.45;100.00;101165.09;105776;1253;66899;-53
2024/02/22 00:52:10;;;;;;;;;;;;;;;-1.44;100.00;101165.50;105872;1257;72681;-60
2024/02/22 00:54:38;;;;;;;;;;;;;;;-1.44;100.00;101161.25;105581;1257;59646;-53
2024/02/22 00:57:05;;;;;;;;;;;;;;;-1.45;100.00;101162.02;105644;1256;59679;-54
2024/02/22 00:59:33;;;;;;;;;;;;;;;-1.47;100.00;101162.94;105613;1254;73066;-53
2024/02/22 01:02:01;;;;;;;;;;;;;;;-1.47;100.00;101162.79;105754;1254;65749;-60
2024/02/22 01:04:29;;;;;;;;;;;;;;;-1.46;100.00;101159.83;105501;1253;72781;-54
2024/02/22 01:06:58;;;;;;;;;;;;;;;-1.46;100.00;101155.57;105761;1257;59731;-54
2024/02/22 01:09:26;;;;;;;;;;;;;;;-1.45;100.00;101151.44;105852;1255;59535;-55
2024/02/22 01:11:54;;;;;;;;;;;;;;;-1.46;100.00;101153.66;105992;1254;73912;-58
2024/02/22 01:14:22;;;;;;;;;;;;;;;-1.47;100.00;101153.04;105519;1253;67971;-55
2024/02/22 01:16:50;;;;;;;;;;;;;;;-1.47;100.00;101152.03;105728;1253;72695;-54
2024/02/22 01:19:18;;;;;;;;;;;;;;;-1.47;100.00;101151.84;105653;1258;60912;-55
2024/02/22 01:21:46;;;;;;;;;;;;;;;-1.47;100.00;101151.17;105729;1257;59296;-56
2024/02/22 01:24:14;;;;;;;;;;;;;;;-1.46;100.00;101148.06;105443;1257;73125;-55
2024/02/22 01:26:41;;;;;;;;;;;;;;;-1.45;100.00;101144.26;105748;1257;67657;-55
2024/02/22 01:29:09;;;;;;;;;;;;;;;-1.46;100.00;101141.74;105694;1253;72790;-56
2024/02/22 01:31:37;;;;;;;;;;;;;;;-1.45;100.00;101145.81;105593;1253;60951;-53
2024/02/22 01:34:05;;;;;;;;;;;;;;;-1.44;100.00;101142.17;105731;1253;59666;-53
2024/02/22 01:36:32;;;;;;;;;;;;;;;-1.44;100.00;101146.77;105716;1253;71865;-53
2024/02/22 01:39:03;;;;;;;;;;;;;;;-1.44;100.00;101147.44;105777;1252;66969;-54
2024/02/22 01:41:31;;;;;;;;;;;;;;;-1.45;100.00;101147.84;105818;1253;72815;-55
2024/02/22 01:43:59;;;;;;;;;;;;;;;-1.44;100.00;101147.13;105749;1257;62448;-54
2024/02/22 01:46:27;;;;;;;;;;;;;;;-1.45;100.00;101147.52;105695;1253;59929;-54
2024/02/22 01:48:55;;;;;;;;;;;;;;;-1.46;100.00;101145.69;105874;1254;73128;-55
2024/02/22 01:51:22;;;;;;;;;;;;;;;-1.47;100.00;101141.96;105670;1258;65643;-54
2024/02/22 01:53:50;;;;;;;;;;;;;;;-1.48;100.00;101142.88;105835;1257;72716;-54
2024/02/22 01:56:18;;;;;;;;;;;;;;;-1.49;100.00;101141.05;105357;1257;59635;-53
2024/02/22 02:06:14;;;;;;;;;;;;;;;-1.51;100.00;101142.38;102394;1291;599245;-54
2024/02/22 02:08:42;;;;;;;;;;;;;;;-1.55;100.00;101150.41;105105;1261;59335;-55
2024/02/22 02:11:10;;;;;;;;;;;;;;;-1.57;100.00;101150.49;105163;1264;59254;-53
2024/02/22 02:13:38;;;;;;;;;;;;;;;-1.58;100.00;101153.30;105318;1259;69843;-55
2024/02/22 02:16:06;;;;;;;;;;;;;;;-1.58;100.00;101155.55;105210;1259;67163;-54
2024/02/22 02:18:34;;;;;;;;;;;;;;;-1.60;100.00;101153.73;105232;1260;72690;-53
2024/02/22 02:21:06;;;;;;;;;;;;;;;-1.60;100.00;101153.95;105225;1260;209326;-53
2024/02/22 02:23:47;;;;;;;;;;;;;;;-1.62;100.00;101152.17;105675;1256;59801;-56
2024/02/22 02:26:15;;;;;;;;;;;;;;;-1.65;100.00;101152.84;107196;1259;71069;-55
2024/02/22 02:28:43;;;;;;;;;;;;;;;-1.65;100.00;101153.70;107124;1259;65987;-54
2024/02/22 02:31:11;;;;;;;;;;;;;;;-1.63;100.00;101155.30;105332;1262;72736;-54
2024/02/22 02:33:38;;;;;;;;;;;;;;;-1.62;100.00;101154.55;105505;1258;59843;-60
2024/02/22 02:36:06;;;;;;;;;;;;;;;-1.62;100.00;101155.77;105670;1257;60005;-55
2024/02/22 02:38:34;;;;;;;;;;;;;;;-1.63;100.00;101152.58;105399;1257;73078;-53
2024/02/22 02:41:01;;;;;;;;;;;;;;;-1.64;100.00;101153.65;105644;1257;67034;-53
2024/02/22 02:43:29;;;;;;;;;;;;;;;-1.66;100.00;101154.60;105760;1253;72744;-54
2024/02/22 02:45:57;;;;;;;;;;;;;;;-1.68;100.00;101156.25;105439;1259;59701;-53
2024/02/22 02:48:24;;;;;;;;;;;;;;;-1.71;100.00;101153.13;105601;1257;59658;-54
2024/02/22 02:50:53;;;;;;;;;;;;;;;-1.72;100.00;101152.17;105719;1253;72143;-53
2024/02/22 02:53:22;;;;;;;;;;;;;;;-1.73;100.00;101155.29;105572;1257;65641;-54
2024/02/22 02:55:49;;;;;;;;;;;;;;;-1.73;100.00;101158.02;105720;1253;72458;-54
2024/02/22 02:58:17;;;;;;;;;;;;;;;-1.73;100.00;101156.52;105609;1256;59737;-54
2024/02/22 03:00:45;;;;;;;;;;;;;;;-1.73;100.00;101155.49;105887;1257;60326;-53
2024/02/22 03:03:13;;;;;;;;;;;;;;;-1.74;100.00;101153.83;105629;1254;73522;-53
2024/02/22 03:05:40;;;;;;;;;;;;;;;-1.75;100.00;101155.39;105764;1251;67165;-55
2024/02/22 03:08:09;;;;;;;;;;;;;;;-1.75;100.00;101155.23;105622;1257;72720;-54
2024/02/22 03:10:36;;;;;;;;;;;;;;;-1.76;100.00;101154.63;105688;1251;59618;-56
2024/02/22 03:13:08;;;;;;;;;;;;;;;-1.77;100.00;101160.61;105826;1251;59634;-54
2024/02/22 03:15:36;;;;;;;;;;;;;;;-1.75;100.00;101158.45;105730;1251;71724;-54
2024/02/22 03:18:04;;;;;;;;;;;;;;;-1.76;100.00;101159.76;105706;1257;67644;-55
2024/02/22 03:20:32;;;;;;;;;;;;;;;-1.78;100.00;101155.21;105805;1256;72678;-54
2024/02/22 03:23:00;;;;;;;;;;;;;;;-1.78;100.00;101158.11;105687;1257;59718;-56
2024/02/22 03:25:27;;;;;;;;;;;;;;;-1.78;100.00;101155.89;105809;1256;59279;-54
2024/02/22 03:27:58;;;;;;;;;;;;;;;-1.78;100.00;101157.27;105887;1251;73085;-61
2024/02/22 03:30:27;;;;;;;;;;;;;;;-1.78;100.00;101157.79;105710;1251;66920;-55
2024/02/22 03:32:57;;;;;;;;;;;;;;;-1.78;100.00;101161.36;105858;1251;72694;-55
2024/02/22 03:35:24;;;;;;;;;;;;;;;-1.78;100.00;101158.83;105739;1257;61003;-54
2024/02/22 03:37:53;;;;;;;;;;;;;;;-1.79;100.00;101155.10;105796;1257;59653;-61
2024/02/22 03:40:21;;;;;;;;;;;;;;;-1.80;100.00;101153.13;105655;1257;72862;-54
2024/02/22 03:42:49;;;;;;;;;;;;;;;-1.81;100.00;101154.39;105447;1253;65534;-54
2024/02/22 03:45:17;;;;;;;;;;;;;;;-1.82;100.00;101153.73;105737;1257;72707;-52
2024/02/22 03:47:45;;;;;;;;;;;;;;;-1.83;100.00;101153.96;105596;1259;59624;-52
2024/02/22 03:50:13;;;;;;;;;;;;;;;-1.86;100.00;101153.95;105794;1254;59743;-53
2024/02/22 03:52:41;;;;;;;;;;;;;;;-1.88;100.00;101151.54;105804;1257;72990;-52
2024/02/22 03:55:08;;;;;;;;;;;;;;;-1.90;100.00;101153.51;105764;1254;65737;-53
2024/02/22 03:57:36;;;;;;;;;;;;;;;-1.93;100.00;101151.60;105698;1258;72851;-52
2024/02/22 04:00:06;;;;;;;;;;;;;;;-1.93;100.00;101155.86;105670;1259;59501;-56
2024/02/22 04:02:41;;;;;;;;;;;;;;;-1.94;100.00;101157.79;105777;1257;59791;-54
2024/02/22 04:05:10;;;;;;;;;;;;;;;-1.94;100.00;101158.15;106020;1253;73120;-55
2024/02/22 04:07:38;;;;;;;;;;;;;;;-1.97;100.00;101157.41;105741;1259;66833;-55
2024/02/22 04:10:06;;;;;;;;;;;;;;;-1.97;100.00;101158.12;105662;1253;71131;-56
2024/02/22 04:12:34;;;;;;;;;;;;;;;-1.98;100.00;101152.73;105789;1258;59715;-54
2024/02/22 04:15:02;;;;;;;;;;;;;;;-2.00;100.00;101152.67;105755;1253;59855;-56
2024/02/22 04:17:30;;;;;;;;;;;;;;;-2.01;100.00;101156.96;105684;1258;73023;-54
2024/02/22 04:19:58;;;;;;;;;;;;;;;-2.02;100.00;101161.27;105808;1253;67021;-57
2024/02/22 04:22:26;;;;;;;;;;;;;;;-2.02;100.00;101166.38;105582;1254;71064;-54
2024/02/22 04:24:53;;;;;;;;;;;;;;;-2.01;100.00;101167.53;105667;1253;59707;-55
2024/02/22 04:27:22;;;;;;;;;;;;;;;-2.00;100.00;101165.10;105795;1253;60278;-54
2024/02/22 04:29:49;;;;;;;;;;;;;;;-2.01;100.00;101170.40;105849;1253;71788;-53
2024/02/22 04:32:17;;;;;;;;;;;;;;;-2.01;100.00;101172.48;105677;1253;67090;-53
2024/02/22 04:34:45;;;;;;;;;;;;;;;-2.01;100.00;101175.17;105784;1258;72756;-56
2024/02/22 04:37:15;;;;;;;;;;;;;;;-2.01;100.00;101177.75;105770;1259;59533;-55
2024/02/22 04:39:43;;;;;;;;;;;;;;;-2.02;100.00;101179.52;105657;1257;59569;-54
2024/02/22 04:42:11;;;;;;;;;;;;;;;-2.03;100.00;101180.54;105851;1257;73165;-62
2024/02/22 04:44:39;;;;;;;;;;;;;;;-2.03;100.00;101184.46;105378;1253;67144;-54
2024/02/22 04:47:08;;;;;;;;;;;;;;;-2.01;100.00;101190.99;105632;1253;72705;-54
2024/02/22 04:49:35;;;;;;;;;;;;;;;-1.97;100.00;101196.46;105606;1253;59645;-55
2024/02/22 04:52:03;;;;;;;;;;;;;;;-1.95;100.00;101198.05;106047;1257;59692;-55
2024/02/22 04:54:32;;;;;;;;;;;;;;;-1.92;100.00;101201.31;105745;1257;73083;-53
2024/02/22 04:57:09;;;;;;;;;;;;;;;-1.90;100.00;101198.27;105831;1253;66988;-54
2024/02/22 04:59:37;;;;;;;;;;;;;;;-1.88;100.00;101198.56;105798;1257;71342;-54
2024/02/22 05:02:05;;;;;;;;;;;;;;;-1.88;100.00;101204.48;105699;1254;59816;-58
2024/02/22 05:04:32;;;;;;;;;;;;;;;-1.87;100.00;101202.40;105583;1255;60445;-53
2024/02/22 05:07:00;;;;;;;;;;;;;;;-1.85;100.00;101204.33;105876;1258;73058;-54
2024/02/22 05:09:29;;;;;;;;;;;;;;;-1.85;100.00;101205.18;105814;1255;65690;-54
2024/02/22 05:11:57;;;;;;;;;;;;;;;-1.85;100.00;101207.23;105877;1257;72700;-54
2024/02/22 05:14:25;;;;;;;;;;;;;;;-1.85;100.00;101209.48;105796;1259;59680;-54
2024/02/22 05:16:52;;;;;;;;;;;;;;;-1.85;100.00;101209.95;105694;1253;59657;-55
2024/02/22 05:19:20;;;;;;;;;;;;;;;-1.83;100.00;101210.20;105429;1253;73115;-55
2024/02/22 05:21:51;;;;;;;;;;;;;;;-1.81;100.00;101210.06;105721;1257;67477;-54
2024/02/22 05:24:19;;;;;;;;;;;;;;;-1.79;100.00;101210.98;105550;1253;72717;-55
2024/02/22 05:26:46;;;;;;;;;;;;;;;-1.77;100.00;101212.58;105617;1253;61706;-54
2024/02/22 05:29:14;;;;;;;;;;;;;;;-1.74;100.00;101210.77;105736;1253;59845;-53
2024/02/22 05:31:42;;;;;;;;;;;;;;;-1.73;100.00;101209.46;105734;1253;72129;-53
2024/02/22 05:34:10;;;;;;;;;;;;;;;-1.72;100.00;101209.94;105764;1257;67045;-54
2024/02/22 05:36:38;;;;;;;;;;;;;;;-1.71;100.00;101206.50;105544;1259;71440;-54
2024/02/22 05:39:07;;;;;;;;;;;;;;;-1.68;100.00;101209.96;105732;1253;60928;-53
2024/02/22 05:41:36;;;;;;;;;;;;;;;-1.64;100.00;101210.94;105765;1253;62296;-53
2024/02/22 05:44:04;;;;;;;;;;;;;;;-1.64;100.00;101204.11;105641;1257;71874;-54
2024/02/22 05:46:32;;;;;;;;;;;;;;;-1.65;100.00;101203.95;105823;1253;65734;-55
2024/02/22 05:49:00;;;;;;;;;;;;;;;-1.65;100.00;101204.48;105706;1258;71433;-54
2024/02/22 05:51:28;;;;;;;;;;;;;;;-1.64;100.00;101201.02;105681;1253;60972;-55
2024/02/22 05:53:56;;;;;;;;;;;;;;;-1.60;100.00;101201.30;105614;1253;60148;-54
2024/02/22 05:56:23;;;;;;;;;;;;;;;-1.55;100.00;101204.81;106062;1253;71786;-54
2024/02/22 05:58:51;;;;;;;;;;;;;;;-1.52;100.00;101201.58;105695;1258;66304;-53
2024/02/22 06:01:19;;;;;;;;;;;;;;;-1.49;100.00;101198.49;105749;1253;73117;-53
2024/02/22 06:03:46;;;;;;;;;;;;;;;-1.46;100.00;101200.21;105611;1253;60934;-56
2024/02/22 06:06:15;;;;;;;;;;;;;;;-1.42;100.00;101196.77;105465;1254;60802;-54
2024/02/22 06:08:43;;;;;;;;;;;;;;;-1.38;100.00;101196.05;105806;1253;73667;-58
2024/02/22 06:11:13;;;;;;;;;;;;;;;-1.36;100.00;101199.01;105772;1257;65668;-53
2024/02/22 06:13:41;;;;;;;;;;;;;;;-1.32;100.00;101198.45;105674;1255;71419;-53
2024/02/22 06:16:09;;;;;;;;;;;;;;;-1.27;100.00;101200.54;105566;1253;60438;-53
2024/02/22 06:18:36;;;;;;;;;;;;;;;-1.18;100.00;101199.05;105844;1253;60576;-60
2024/02/22 06:21:06;;;;;;;;;;;;;;;-1.13;100.00;101196.73;105702;1257;74382;-54
2024/02/22 06:23:34;;;;;;;;;;;;;;;-1.12;100.00;101193.98;105667;1257;66953;-54
2024/02/22 06:26:03;;;;;;;;;;;;;;;-1.12;100.00;101195.98;105750;1253;70349;-54
2024/02/22 06:28:33;;;;;;;;;;;;;;;-1.10;100.00;101190.42;105969;1258;60329;-58
2024/02/22 06:31:02;;;;;;;;;;;;;;;-1.08;100.00;101187.27;105651;1253;60958;-53
2024/02/22 06:33:33;;;;;;;;;;;;;;;-1.06;100.00;101184.54;105619;1254;76121;-53
2024/02/22 06:36:01;;;;;;;;;;;;;;;-1.03;100.00;101184.89;105644;1256;68107;-54
2024/02/22 06:38:29;;;;;;;;;;;;;;;-1.00;100.00;101182.53;105856;1253;74007;-60
2024/02/22 06:40:58;;;;;;;;;;;;;;;-0.97;100.00;101185.60;105691;1258;61203;-53
2024/02/22 06:43:26;;;;;;;;;;;;;;;-0.93;100.00;101185.40;105722;1253;62293;-53
2024/02/22 06:45:54;;;;;;;;;;;;;;;-0.94;100.00;101184.74;105770;1257;76386;-53
2024/02/22 06:48:22;;;;;;;;;;;;;;;-0.90;100.00;101183.48;105595;1253;67164;-54
2024/02/22 06:50:50;;;;;;;;;;;;;;;-0.85;100.00;101181.31;105823;1258;72739;-53
2024/02/22 06:53:18;;;;;;;;;;;;;;;-0.80;100.00;101179.33;105526;1259;60499;-53
2024/02/22 06:55:46;;;;;;;;;;;;;;;-0.74;100.00;101174.59;105797;1253;60556;-55
2024/02/22 06:58:14;;;;;;;;;;;;;;;-0.70;100.00;101173.02;105738;1255;73857;-54
2024/02/22 07:00:41;;;;;;;;;;;;;;;-0.65;100.00;101164.48;106007;1257;66917;-55
2024/02/22 07:03:12;;;;;;;;;;;;;;;-0.58;100.00;101167.83;105831;1259;73441;-54
2024/02/22 07:05:40;;;;;;;;;;;;;;;-0.53;100.00;101169.08;106083;1257;64054;-53
2024/02/22 07:08:08;;;;;;;;;;;;;;;-0.48;100.00;101166.91;105752;1254;62816;-53
2024/02/22 07:10:36;;;;;;;;;;;;;;;-0.44;100.00;101163.65;105714;1258;73921;-59
2024/02/22 07:13:04;;;;;;;;;;;;;;;-0.40;100.00;101166.48;105486;1253;69176;-53
2024/02/22 07:15:32;;;;;;;;;;;;;;;-0.37;100.00;101168.30;105696;1258;74919;-53
2024/02/22 07:17:59;;;;;;;;;;;;;;;-0.34;100.00;101172.25;105731;1259;62425;-54
2024/02/22 07:20:27;;;;;;;;;;;;;;;-0.33;100.00;101171.16;105777;1254;62176;-54
2024/02/22 07:22:55;;;;;;;;;;;;;;;-0.31;100.00;101171.35;105937;1255;77621;-59
2024/02/22 07:25:23;;;;;;;;;;;;;;;-0.27;100.00;101169.09;105573;1258;68153;-54
2024/02/22 07:27:51;;;;;;;;;;;;;;;-0.25;100.00;101168.98;105758;1253;75427;-55
2024/02/22 07:30:19;;;;;;;;;;;;;;;-0.24;100.00;101166.34;105683;1259;62264;-55
2024/02/22 07:32:46;;;;;;;;;;;;;;;-0.22;100.00;101167.65;105601;1253;61371;-54
2024/02/22 07:35:16;;;;;;;;;;;;;;;-0.22;100.00;101167.60;105986;1258;77314;-58
2024/02/22 07:37:44;;;;;;;;;;;;;;;-0.20;100.00;101163.60;105692;1258;69353;-55
2024/02/22 07:40:12;;;;;;;;;;;;;;;-0.18;100.00;101160.56;105757;1253;76332;-55
2024/02/22 07:42:40;;;;;;;;;;;;;;;-0.15;100.00;101162.90;105733;1259;62733;-58
2024/02/22 07:45:09;;;;;;;;;;;;;;;-0.10;100.00;101161.40;105715;1253;62351;-58
2024/02/22 07:47:36;;;;;;;;;;;;;;;-0.06;100.00;101161.55;105576;1253;76433;-55
2024/02/22 07:50:10;;;;;;;;;;;;;;;-0.05;100.00;101159.07;105503;1259;69312;-55
2024/02/22 07:52:39;;;;;;;;;;;;;;;0.00;100.00;101161.85;105600;1259;74185;-55
2024/02/22 07:55:07;;;;;;;;;;;;;;;0.11;100.00;101162.21;105867;1259;62071;-59
2024/02/22 07:57:35;;;;;;;;;;;;;;;0.26;100.00;101159.62;105796;1258;61407;-54
2024/02/22 08:00:03;;;;;;;;;;;;;;;0.43;100.00;101159.06;105826;1258;74765;-54
2024/02/22 08:02:34;;;;;;;;;;;;;;;0.55;100.00;101160.54;105728;1255;69520;-55
2024/02/22 08:05:02;;;;;;;;;;;;;;;0.61;100.00;101155.16;106012;1254;74188;-56
2024/02/22 08:07:30;;;;;;;;;;;;;;;0.67;100.00;101155.49;105765;1253;62898;-55
2024/02/22 08:09:58;;;;;;;;;;;;;;;0.69;100.00;101155.16;105813;1258;60863;-55
2024/02/22 08:19:52;;;;;;;;;;;;;;;1.00;100.00;101140.55;102840;1289;599474;-55
2024/02/22 08:22:20;;;;;;;;;;;;;;;1.07;100.00;101139.38;104879;1271;61703;-55
2024/02/22 08:24:50;;;;;;;;;;;;;;;1.14;100.00;101132.60;104966;1266;62486;-55
2024/02/22 08:27:18;;;;;;;;;;;;;;;1.24;100.00;101128.73;104811;1271;74866;-54
2024/02/22 08:29:50;;;;;;;;;;;;;;;1.38;100.00;101128.13;104881;1271;68961;-54
2024/02/22 08:32:18;;;;;;;;;;;;;;;1.52;100.00;101125.96;104700;1271;207619;-55
2024/02/22 08:34:46;;;;;;;;;;;;;;;1.61;100.00;101125.88;104807;1269;62018;-56
2024/02/22 08:37:14;;;;;;;;;;;;;;;1.72;100.00;101129.62;104843;1269;63125;-56
2024/02/22 08:39:42;;;;;;;;;;;;;;;1.84;100.00;101131.38;104895;1268;74650;-56
2024/02/22 08:42:10;;;;;;;;;;;;;;;1.90;100.00;101134.15;104799;1263;69143;-58
2024/02/22 08:44:38;;;;;;;;;;;;;;;2.00;100.00;101129.07;104831;1269;74268;-57
2024/02/22 08:47:08;;;;;;;;;;;;;;;2.15;100.00;101128.00;104949;1269;61802;-57
2024/02/22 08:49:38;;;;;;;;;;;;;;;2.25;100.00;101127.33;105194;1265;61314;-61
2024/02/22 08:52:06;;;;;;;;;;;;;;;2.23;100.00;101126.06;104706;1269;74503;-57
2024/02/22 08:54:36;;;;;;;;;;;;;;;2.22;100.00;101128.73;105147;1265;69974;-57
2024/02/22 08:57:04;;;;;;;;;;;;;;;2.20;100.00;101126.80;105173;1266;76858;-58
2024/02/22 08:59:31;;;;;;;;;;;;;;;2.24;100.00;101123.91;105057;1262;59740;-58
2024/02/22 09:01:59;;;;;;;;;;;;;;;2.34;100.00;101117.06;104825;1265;61146;-58
2024/02/22 09:04:27;;;;;;;;;;;;;;;2.39;100.00;101116.33;104963;1266;75418;-57
2024/02/22 09:06:55;;;;;;;;;;;;;;;2.47;100.00;101114.40;105017;1267;68395;-58
2024/02/22 09:09:23;;;;;;;;;;;;;;;2.53;100.00;101111.25;105011;1260;76017;-60
2024/02/22 09:11:51;;;;;;;;;;;;;;;2.59;100.00;101107.56;105136;1265;62131;-60
2024/02/22 09:14:19;;;;;;;;;;;;;;;2.63;100.00;101104.30;105017;1261;60873;-59
2024/02/22 09:16:47;;;;;;;;;;;;;;;2.73;100.00;101102.44;105062;1261;73654;-58
2024/02/22 09:19:15;;;;;;;;;;;;;;;2.82;100.00;101099.19;105083;1263;67255;-59
2024/02/22 09:21:45;;;;;;;;;;;;;;;2.90;100.00;101099.96;105178;1266;76019;-59
2024/02/22 09:24:13;;;;;;;;;;;;;;;2.97;100.00;101098.61;105109;1264;60844;-61
2024/02/22 09:26:41;;;;;;;;;;;;;;;3.02;100.00;101093.39;105083;1263;62466;-62
2024/02/22 09:29:09;;;;;;;;;;;;;;;3.09;100.00;101093.37;104998;1266;74279;-60
2024/02/22 09:31:37;;;;;;;;;;;;;;;3.22;100.00;101092.45;105396;1262;70404;-61
2024/02/22 09:34:04;;;;;;;;;;;;;;;3.30;100.00;101088.55;105491;1262;74044;-61
2024/02/22 09:36:32;;;;;;;;;;;;;;;3.38;100.00;101087.97;105296;1262;61631;-60
2024/02/22 09:39:00;;;;;;;;;;;;;;;3.42;100.00;101080.30;105411;1262;59917;-62
2024/02/22 09:41:29;;;;;;;;;;;;;;;3.47;100.00;101078.76;105767;1257;74282;-67
2024/02/22 09:43:57;;;;;;;;;;;;;;;3.46;100.00;101076.23;105162;1270;70606;-61
2024/02/22 09:46:26;;;;;;;;;;;;;;;3.47;100.00;101076.48;105404;1262;75789;-60
2024/02/22 09:48:53;;;;;;;;;;;;;;;3.47;100.00;101077.34;105347;1263;61504;-59
2024/02/22 09:51:23;;;;;;;;;;;;;;;3.40;100.00;101078.72;105433;1263;62815;-60
2024/02/22 09:53:51;;;;;;;;;;;;;;;3.30;100.00;101078.16;105314;1262;74995;-60
2024/02/22 09:56:19;;;;;;;;;;;;;;;3.20;100.00;101079.37;105428;1261;71162;-61
2024/02/22 09:58:50;;;;;;;;;;;;;;;3.14;100.00;101076.73;105541;1265;75730;-60
2024/02/22 10:01:18;;;;;;;;;;;;;;;3.04;100.00;101079.52;105582;1261;62673;-67
2024/02/22 10:03:46;;;;;;;;;;;;;;;2.93;100.00;101072.59;105259;1257;62069;-61
2024/02/22 10:06:18;;;;;;;;;;;;;;;2.97;100.00;101067.17;105531;1259;74827;-60
2024/02/22 10:08:48;;;;;;;;;;;;;;;3.03;100.00;101075.65;105851;1257;69410;-60
2024/02/22 10:11:19;;;;;;;;;;;;;;;3.06;100.00;101069.10;105828;1260;75822;-60
2024/02/22 10:13:47;;;;;;;;;;;;;;;3.04;100.00;101068.67;105448;1258;62920;-60
2024/02/22 10:16:16;;;;;;;;;;;;;;;3.01;100.00;101066.34;105756;1253;63491;-59
2024/02/22 10:18:43;;;;;;;;;;;;;;;2.91;100.00;101063.50;105856;1254;75521;-60
2024/02/22 10:21:12;;;;;;;;;;;;;;;2.84;100.00;101067.14;105715;1254;71023;-60
2024/02/22 10:23:39;;;;;;;;;;;;;;;2.83;100.00;101067.73;105532;1254;75504;-61
2024/02/22 10:26:07;;;;;;;;;;;;;;;2.85;100.00;101066.71;105535;1258;60179;-60
2024/02/22 10:28:35;;;;;;;;;;;;;;;2.90;100.00;101069.05;105488;1253;62289;-60
2024/02/22 10:31:03;;;;;;;;;;;;;;;2.90;100.00;101067.17;105526;1257;75523;-60
2024/02/22 10:33:31;;;;;;;;;;;;;;;2.82;100.00;101066.39;105652;1257;70702;-59
2024/02/22 10:35:59;;;;;;;;;;;;;;;2.78;100.00;101070.96;105494;1257;75452;-60
2024/02/22 10:38:30;;;;;;;;;;;;;;;2.78;100.00;101069.27;105462;1258;60678;-60
2024/02/22 10:41:00;;;;;;;;;;;;;;;2.78;100.00;101071.88;105560;1254;63624;-59
2024/02/22 10:43:27;;;;;;;;;;;;;;;2.75;100.00;101074.85;105073;1258;76196;-59
2024/02/22 10:45:57;;;;;;;;;;;;;;;2.68;100.00;101076.19;105551;1252;71081;-59
2024/02/22 10:48:25;;;;;;;;;;;;;;;2.62;100.00;101072.33;105507;1256;74146;-60
2024/02/22 10:50:53;;;;;;;;;;;;;;;2.55;100.00;101070.41;105413;1259;61928;-61
2024/02/22 10:53:21;;;;;;;;;;;;;;;2.49;100.00;101071.75;105417;1258;63345;-60
2024/02/22 10:55:52;;;;;;;;;;;;;;;2.45;100.00;101067.73;105109;1257;74589;-60
2024/02/22 10:58:20;;;;;;;;;;;;;;;2.42;100.00;101063.30;105565;1254;68124;-60
2024/02/22 11:00:51;;;;;;;;;;;;;;;2.43;100.00;101061.89;105406;1258;75876;-62
2024/02/22 11:03:21;;;;;;;;;;;;;;;2.45;100.00;101060.67;105628;1254;60690;-60
2024/02/22 11:05:51;;;;;;;;;;;;;;;2.49;100.00;101053.23;105593;1254;62860;-59
2024/02/22 11:08:20;;;;;;;;;;;;;;;2.51;100.00;101055.64;105469;1254;75450;-59
2024/02/22 11:11:04;;;;;;;;;;;;;;;2.53;100.00;101055.30;105521;1260;68979;-68
2024/02/22 11:13:34;;;;;;;;;;;;;;;2.57;100.00;101063.89;105599;1255;74137;-60
2024/02/22 11:16:20;;;;;;;;;;;;;;;2.58;100.00;101063.66;105315;1259;62178;-60
2024/02/22 11:18:49;;;;;;;;;;;;;;;2.60;100.00;101062.16;105177;1259;61763;-60
2024/02/22 11:21:19;;;;;;;;;;;;;;;2.62;100.00;101066.52;105521;1258;76407;-60
2024/02/22 11:23:48;;;;;;;;;;;;;;;2.59;100.00;101059.66;105658;1256;69135;-60
2024/02/22 11:26:16;;;;;;;;;;;;;;;2.55;100.00;101065.31;106033;1254;75257;-59
2024/02/22 11:28:51;;;;;;;;;;;;;;;2.50;100.00;101067.55;105681;1251;63751;-60
2024/02/22 11:31:18;;;;;;;;;;;;;;;2.44;100.00;101065.89;105581;1251;62301;-59
2024/02/22 11:33:46;;;;;;;;;;;;;;;2.40;100.00;101065.36;105590;1251;74938;-61
2024/02/22 11:36:16;;;;;;;;;;;;;;;2.39;100.00;101062.84;105811;1251;70337;-64
2024/02/22 11:38:47;;;;;;;;;;;;;;;2.39;100.00;101062.34;105416;1258;75492;-59
2024/02/22 11:41:15;;;;;;;;;;;;;;;2.39;100.00;101061.62;105735;1253;60126;-60
2024/02/22 11:43:43;;;;;;;;;;;;;;;2.40;100.00;101066.16;105590;1251;61494;-60
2024/02/22 11:46:12;;;;;;;;;;;;;;;2.41;100.00;101060.66;105702;1256;76516;-61
2024/02/22 11:48:40;;;;;;;;;;;;;;;2.39;100.00;101058.19;105638;1258;69331;-61
2024/02/22 11:51:08;;;;;;;;;;;;;;;2.40;100.00;101059.52;105602;1251;73864;-61
2024/02/22 11:53:40;;;;;;;;;;;;;;;2.41;100.00;101064.73;105513;1257;59820;-62
2024/02/22 11:56:08;;;;;;;;;;;;;;;2.43;100.00;101063.07;105525;1251;62951;-66
2024/02/22 11:58:38;;;;;;;;;;;;;;;2.45;100.00;101065.83;105318;1257;75550;-60
2024/02/22 12:01:06;;;;;;;;;;;;;;;2.43;100.00;101067.36;105609;1257;71024;-61
2024/02/22 12:03:34;;;;;;;;;;;;;;;2.41;100.00;101068.23;105710;1254;75025;-60
2024/02/22 12:06:06;;;;;;;;;;;;;;;2.39;100.00;101067.77;105628;1253;62393;-64
2024/02/22 12:08:35;;;;;;;;;;;;;;;2.39;100.00;101067.61;105569;1257;61190;-59
2024/02/22 12:11:04;;;;;;;;;;;;;;;2.38;100.00;101065.31;105613;1256;74826;-60
2024/02/22 12:13:32;;;;;;;;;;;;;;;2.38;100.00;101068.88;105491;1257;68241;-61
2024/02/22 12:16:07;;;;;;;;;;;;;;;2.40;100.00;101068.73;105616;1254;73000;-60
2024/02/22 12:18:35;;;;;;;;;;;;;;;2.40;100.00;101069.30;105625;1258;61941;-61
2024/02/22 12:21:04;;;;;;;;;;;;;;;2.40;100.00;101071.38;105642;1254;61042;-58
2024/02/22 12:23:32;;;;;;;;;;;;;;;2.41;100.00;101068.55;105745;1251;75272;-62
2024/02/22 12:26:06;;;;;;;;;;;;;;;2.44;100.00;101066.24;105575;1257;69266;-61
2024/02/22 12:28:37;;;;;;;;;;;;;;;2.48;100.00;101063.23;105632;1251;76129;-61
2024/02/22 12:31:05;;;;;;;;;;;;;;;2.52;100.00;101059.33;105438;1257;63369;-61
2024/02/22 12:33:33;;;;;;;;;;;;;;;2.54;100.00;101055.05;105546;1251;61204;-61
2024/02/22 12:36:03;;;;;;;;;;;;;;;2.57;100.00;101054.52;105794;1251;74101;-63
2024/02/22 12:38:31;;;;;;;;;;;;;;;2.57;100.00;101054.68;105682;1256;71303;-59
2024/02/22 12:40:59;;;;;;;;;;;;;;;2.55;100.00;101051.23;105629;1253;74177;-59